createdAt,value
2018-10-12T00:04:00.505Z,101478.76
2018-10-12T00:09:04.819Z,101475.47
2018-10-12T00:14:08.113Z,101474.72
2018-10-12T00:19:11.335Z,101477.34
2018-10-12T00:24:14.880Z,101481.36
2018-10-12T00:29:18.085Z,101494.98
2018-10-12T00:34:21.352Z,101501.48
2018-10-12T00:39:24.591Z,101493.79
2018-10-12T00:44:27.947Z,101501.50
2018-10-12T00:49:31.249Z,101507.18
2018-10-12T00:54:34.434Z,101497.58
2018-10-12T00:59:37.684Z,101500.05
2018-10-12T01:04:40.878Z,101507.16
2018-10-12T01:09:44.167Z,101512.19
2018-10-12T01:14:47.386Z,101509.31
2018-10-12T01:19:51.563Z,101506.47
2018-10-12T01:24:55.029Z,101497.84
2018-10-12T01:29:58.321Z,101515.27
2018-10-12T01:35:01.563Z,101514.73
2018-10-12T01:40:04.765Z,101526.95
2018-10-12T01:45:08.044Z,101531.77
2018-10-12T01:50:11.292Z,101527.48
2018-10-12T01:55:14.699Z,101520.57
2018-10-12T02:00:17.913Z,101530.40
2018-10-12T02:05:22.751Z,101537.00
2018-10-12T02:10:26.093Z,101546.80
2018-10-12T02:15:29.324Z,101544.33
2018-10-12T02:20:32.538Z,101542.63
2018-10-12T02:25:35.772Z,101544.28
2018-10-12T02:30:39.174Z,101548.23
2018-10-12T02:35:42.445Z,101552.77
2018-10-12T02:40:45.817Z,101551.73
2018-10-12T02:45:50.002Z,101548.92
2018-10-12T02:50:53.197Z,101557.98
2018-10-12T02:55:56.349Z,101563.13
2018-10-12T03:00:59.515Z,101564.33
2018-10-12T03:06:02.710Z,101568.34
2018-10-12T03:11:05.932Z,101567.31
2018-10-12T03:16:09.312Z,101562.47
2018-10-12T03:21:12.791Z,101560.98
2018-10-12T03:26:16.067Z,101563.98
2018-10-12T03:31:19.534Z,101565.12
2018-10-12T03:36:22.735Z,101577.66
2018-10-12T03:41:25.907Z,101575.55
2018-10-12T03:46:38.806Z,101577.86
2018-10-12T03:51:42.065Z,101587.34
2018-10-12T03:56:45.364Z,101588.42
2018-10-12T04:01:51.139Z,101579.73
2018-10-12T04:06:54.620Z,101582.88
2018-10-12T04:11:57.833Z,101603.31
2018-10-12T04:17:00.984Z,101603.42
2018-10-12T04:22:04.690Z,101606.45
2018-10-12T04:27:08.469Z,101617.47
2018-10-12T04:37:22.459Z,101626.19
2018-10-12T04:42:27.206Z,101629.47
2018-10-12T04:47:30.463Z,101624.39
2018-10-12T04:52:33.697Z,101619.67
2018-10-12T04:57:36.913Z,101632.72
2018-10-12T05:02:40.230Z,101641.66
2018-10-12T05:07:43.582Z,101653.02
2018-10-12T05:12:46.762Z,101659.08
2018-10-12T05:17:49.966Z,101665.62
2018-10-12T05:22:53.233Z,101667.42
2018-10-12T05:27:56.519Z,101662.47
2018-10-12T05:32:59.777Z,101668.63
2018-10-12T05:38:03.763Z,101678.30
2018-10-12T05:43:07.391Z,101683.73
2018-10-12T05:48:22.175Z,101691.48
2018-10-12T05:53:25.815Z,101696.20
2018-10-12T05:58:29.065Z,101700.44
2018-10-12T06:03:32.991Z,101716.39
2018-10-12T06:08:36.318Z,101710.36
2018-10-12T06:13:39.484Z,101707.18
2018-10-12T06:18:42.750Z,101715.16
2018-10-12T06:23:45.914Z,101718.16
2018-10-12T06:28:49.206Z,101732.98
2018-10-12T06:33:52.791Z,101735.95
2018-10-12T06:38:56.641Z,101732.52
2018-10-12T06:43:59.864Z,101725.86
2018-10-12T06:49:03.453Z,101735.13
2018-10-12T06:54:07.267Z,101741.52
2018-10-12T06:59:10.486Z,101752.88
2018-10-12T07:04:13.906Z,101754.43
2018-10-12T07:09:17.151Z,101759.43
2018-10-12T07:14:20.369Z,101770.23
2018-10-12T07:19:23.539Z,101774.50
2018-10-12T07:24:26.850Z,101780.05
2018-10-12T07:29:30.022Z,101783.30
2018-10-12T07:34:33.497Z,101799.56
2018-10-12T07:39:36.666Z,101796.22
2018-10-12T07:44:39.888Z,101792.45
2018-10-12T07:49:43.116Z,101802.88
2018-10-12T07:54:46.379Z,101804.29
2018-10-12T07:59:49.678Z,101828.11
2018-10-12T08:04:52.874Z,101828.33
2018-10-12T08:09:56.039Z,101831.86
2018-10-12T08:14:59.214Z,101829.33
2018-10-12T08:20:04.016Z,101835.63
2018-10-12T08:25:07.268Z,101838.73
2018-10-12T08:30:11.052Z,101848.62
2018-10-12T08:35:16.316Z,101846.63
2018-10-12T08:40:19.579Z,101854.64
2018-10-12T08:45:22.736Z,101852.56
2018-10-12T08:50:26.034Z,101854.75
2018-10-12T08:55:29.282Z,101872.57
2018-10-12T09:00:32.400Z,101874.59
2018-10-12T09:05:35.594Z,101874.33
2018-10-12T09:10:39.774Z,101867.66
2018-10-12T09:15:43.058Z,101891.59
2018-10-12T09:20:46.530Z,101882.96
2018-10-12T09:25:49.726Z,101880.77
2018-10-12T09:30:52.897Z,101888.81
2018-10-12T09:35:56.220Z,101898.23
2018-10-12T09:40:59.382Z,101901.99
2018-10-12T09:46:02.534Z,101911.44
2018-10-12T09:51:05.762Z,101901.13
2018-10-12T09:56:09.095Z,101896.84
2018-10-12T10:01:12.406Z,101880.06
2018-10-12T10:06:15.570Z,101868.63
2018-10-12T10:11:18.791Z,101875.02
2018-10-12T10:16:22.038Z,101871.74
2018-10-12T10:21:25.166Z,101866.14
2018-10-12T10:26:28.393Z,101857.76
2018-10-12T10:31:31.553Z,101880.55
2018-10-12T10:36:34.870Z,101871.59
2018-10-12T10:41:38.224Z,101870.07
2018-10-12T10:46:41.941Z,101867.72
2018-10-12T10:51:45.117Z,101870.31
2018-10-12T10:56:48.292Z,101871.23
2018-10-12T11:01:51.524Z,101873.29
2018-10-12T11:06:54.803Z,101854.05
2018-10-12T11:11:58.311Z,101876.89
2018-10-12T11:17:01.514Z,101878.19
2018-10-12T11:22:05.311Z,101868.97
2018-10-12T11:27:08.611Z,101865.65
2018-10-12T11:32:11.868Z,101863.02
2018-10-12T11:37:15.025Z,101868.70
2018-10-12T11:42:18.361Z,101868.25
2018-10-12T11:47:21.499Z,101871.76
2018-10-12T11:52:24.720Z,101866.18
2018-10-12T11:57:27.887Z,101873.75
2018-10-12T12:02:31.082Z,101875.98
2018-10-12T12:07:34.316Z,101873.23
2018-10-12T12:12:37.684Z,101875.53
2018-10-12T12:17:40.864Z,101868.66
2018-10-12T12:22:44.171Z,101867.70
2018-10-12T12:27:47.326Z,101862.25
2018-10-12T12:32:50.558Z,101859.34
2018-10-12T12:37:53.831Z,101850.09
2018-10-12T12:42:57.018Z,101856.80
2018-10-12T12:48:00.428Z,101853.77
2018-10-12T12:53:03.614Z,101854.09
2018-10-12T12:58:06.902Z,101852.89
2018-10-12T13:03:10.136Z,101859.08
2018-10-12T13:08:13.364Z,101855.44
2018-10-12T13:13:16.965Z,101867.75
2018-10-12T13:18:20.209Z,101868.91
2018-10-12T13:23:23.444Z,101865.95
2018-10-12T13:28:26.784Z,101873.92
2018-10-12T13:33:30.148Z,101879.24
2018-10-12T13:38:33.389Z,101883.63
2018-10-12T13:43:36.695Z,101890.65
2018-10-12T13:48:39.872Z,101877.57
2018-10-12T13:53:43.081Z,101881.02
2018-10-12T13:58:46.281Z,101883.84
2018-10-12T14:03:49.459Z,101889.90
2018-10-12T14:08:52.611Z,101890.10
2018-10-12T14:13:55.846Z,101899.59
2018-10-12T14:18:59.208Z,101886.22
2018-10-12T14:24:02.519Z,101878.04
2018-10-12T14:29:05.795Z,101877.09
2018-10-12T14:34:09.082Z,101875.05
2018-10-12T14:39:12.457Z,101867.20
2018-10-12T14:44:15.913Z,101872.28
2018-10-12T14:49:19.128Z,101875.95
2018-10-12T14:54:22.346Z,101872.33
2018-10-12T14:59:25.654Z,101857.41
2018-10-12T15:04:28.989Z,101859.63
2018-10-12T15:09:32.107Z,101858.14
2018-10-12T15:14:46.504Z,101852.83
2018-10-12T15:19:49.682Z,101851.73
2018-10-12T15:24:52.908Z,101847.44
2018-10-12T15:29:56.084Z,101856.36
2018-10-12T15:34:59.338Z,101865.17
2018-10-12T15:40:04.089Z,101864.71
2018-10-12T15:45:07.412Z,101871.72
2018-10-12T15:50:10.590Z,101869.38
2018-10-12T15:55:13.896Z,101882.64
2018-10-12T16:00:17.744Z,101876.89
2018-10-12T16:05:21.026Z,101879.45
2018-10-12T16:10:24.323Z,101877.97
2018-10-12T16:15:27.737Z,101890.89
2018-10-12T16:20:31.090Z,101893.73
2018-10-12T16:25:54.303Z,101906.23
2018-10-12T16:30:57.744Z,101910.73
2018-10-12T16:36:01.055Z,101926.86
2018-10-12T16:41:04.164Z,101931.81
2018-10-12T16:46:07.565Z,101933.33
2018-10-12T16:51:10.799Z,101936.72
2018-10-12T16:56:14.147Z,101945.27
2018-10-12T17:01:17.473Z,101940.55
2018-10-12T17:06:21.622Z,101950.67
2018-10-12T17:11:24.951Z,101963.36
2018-10-12T17:16:28.467Z,101959.05
2018-10-12T17:21:32.152Z,101966.09
2018-10-12T17:26:35.495Z,101971.80
2018-10-12T17:31:38.788Z,101978.83
2018-10-12T17:36:42.517Z,101976.67
2018-10-12T17:41:45.888Z,101984.83
2018-10-12T17:46:49.318Z,101995.11
2018-10-12T17:51:52.719Z,101989.06
2018-10-12T17:56:56.091Z,101984.53
2018-10-12T18:01:59.486Z,101989.27
2018-10-12T18:07:02.925Z,101993.64
2018-10-12T18:12:06.281Z,101992.45
2018-10-12T18:17:09.582Z,101996.80
2018-10-12T18:22:18.589Z,101990.39
2018-10-12T18:27:21.860Z,101989.80
2018-10-12T18:32:25.116Z,101987.91
2018-10-12T18:37:28.590Z,101996.05
2018-10-12T18:42:32.202Z,102003.56
2018-10-12T18:47:35.479Z,102015.46
2018-10-12T18:52:39.573Z,102021.78
2018-10-12T18:57:42.952Z,102019.74
2018-10-12T19:02:46.219Z,102025.39
2018-10-12T19:07:49.725Z,102028.50
2018-10-12T19:12:55.138Z,102026.34
2018-10-12T19:23:33.150Z,102025.66
2018-10-12T19:28:43.433Z,102025.83
2018-10-12T19:33:46.754Z,102024.70
2018-10-12T19:38:50.038Z,102036.38
2018-10-12T19:43:53.350Z,102037.40
2018-10-12T19:48:56.676Z,102039.79
2018-10-12T19:54:00.223Z,102030.92
2018-10-12T19:59:03.786Z,102026.10
2018-10-12T20:04:07.204Z,102033.00
2018-10-12T20:09:10.454Z,102028.97
2018-10-12T20:14:13.736Z,102028.11
2018-10-12T20:19:17.113Z,102024.06
2018-10-12T20:24:20.495Z,102036.35
2018-10-12T20:29:24.327Z,102038.40
2018-10-12T20:34:28.239Z,102035.00
2018-10-12T20:39:31.591Z,102035.31
2018-10-12T20:44:35.018Z,102029.72
2018-10-12T20:49:42.417Z,102030.02
2018-10-12T20:54:46.525Z,102034.60
2018-10-12T20:59:49.791Z,102037.34
2018-10-12T21:04:54.765Z,102039.05
2018-10-12T21:09:58.171Z,102035.25
2018-10-12T21:15:01.394Z,102039.13
2018-10-12T21:20:05.221Z,102039.33
2018-10-12T21:25:08.867Z,102043.13
2018-10-12T21:30:12.037Z,102039.38
2018-10-12T21:35:15.237Z,102044.01
2018-10-12T21:40:18.551Z,102039.77
2018-10-12T21:45:21.701Z,102042.48
2018-10-12T21:50:25.141Z,102049.95
2018-10-12T21:55:28.561Z,102048.58
2018-10-12T22:00:31.770Z,102049.84
2018-10-12T22:05:34.989Z,102035.98
2018-10-12T22:10:38.323Z,102038.70
2018-10-12T22:15:41.495Z,102043.52
2018-10-12T22:20:44.692Z,102041.28
2018-10-12T22:25:47.844Z,102046.09
2018-10-12T22:30:51.449Z,102036.28
2018-10-12T22:35:54.667Z,102042.91
2018-10-12T22:40:57.980Z,102039.17
2018-10-12T22:46:01.173Z,102044.30
2018-10-12T22:51:04.918Z,102043.36
2018-10-12T22:56:08.292Z,102046.16
2018-10-12T23:01:11.528Z,102049.70
2018-10-12T23:06:14.725Z,102045.75
2018-10-12T23:11:18.268Z,102050.67
2018-10-12T23:16:21.407Z,102056.33
2018-10-12T23:21:24.582Z,102056.83
2018-10-12T23:26:27.801Z,102063.89
2018-10-12T23:31:31.024Z,102061.61
2018-10-12T23:36:34.216Z,102065.63
2018-10-12T23:41:37.471Z,102058.16
2018-10-12T23:46:40.645Z,102069.59
2018-10-12T23:51:43.841Z,102060.84
2018-10-12T23:56:47.138Z,102064.15
